Time;durP1;ratioP1;P1;durP2;ratioP2;P2;SDS_P1;SDS_P2;PMS_P1;PMS_P2;Temp;Humidity;BMP_temperature;BMP_pressure;BME280_temperature;BME280_humidity;BME280_pressure;Samples;Min_cycle;Max_cycle;Signal;HPM_P1;HPM_P2
2021/11/25 00:00:50;;;;;;;15.45;11.93;;;8.00;99.90;;;;;;5089461;28;20242;-83
2021/11/25 00:03:17;;;;;;;18.98;11.85;;;8.20;99.90;;;;;;5096274;28;20185;-84
2021/11/25 00:05:44;;;;;;;14.98;11.57;;;8.10;99.90;;;;;;5098301;28;20221;-84
2021/11/25 00:08:12;;;;;;;19.90;12.55;;;8.00;99.90;;;;;;5097829;28;20262;-83
2021/11/25 00:10:41;;;;;;;19.15;13.90;;;8.10;99.90;;;;;;5098472;28;20233;-81
2021/11/25 00:13:08;;;;;;;17.52;12.45;;;8.00;99.90;;;;;;5098679;28;20198;-81
2021/11/25 00:15:35;;;;;;;15.23;12.77;;;8.00;99.90;;;;;;5098455;28;20176;-83
2021/11/25 00:18:02;;;;;;;18.27;14.30;;;8.00;99.90;;;;;;5098380;28;20226;-82
2021/11/25 00:20:29;;;;;;;19.48;13.25;;;7.90;99.90;;;;;;5098509;28;20209;-82
2021/11/25 00:22:56;;;;;;;17.13;13.20;;;7.70;99.90;;;;;;5098639;28;20185;-81
2021/11/25 00:25:26;;;;;;;17.00;13.05;;;7.70;99.90;;;;;;5098368;28;20186;-82
2021/11/25 00:27:53;;;;;;;15.52;10.85;;;7.80;99.90;;;;;;5098297;28;20203;-82
2021/11/25 00:30:21;;;;;;;18.75;12.25;;;7.70;99.90;;;;;;5096161;28;20190;-80
2021/11/25 00:32:48;;;;;;;16.33;12.30;;;8.00;99.90;;;;;;5097342;28;20232;-83
2021/11/25 00:35:15;;;;;;;20.08;14.40;;;8.10;99.90;;;;;;5114916;28;20207;-82
2021/11/25 00:37:43;;;;;;;21.30;14.10;;;7.90;99.90;;;;;;5112435;28;20252;-82
2021/11/25 00:40:12;;;;;;;19.75;14.15;;;8.00;99.90;;;;;;5084351;28;20206;-82
2021/11/25 00:42:41;;;;;;;16.08;14.20;;;7.90;99.90;;;;;;5083310;28;20206;-83
2021/11/25 00:45:09;;;;;;;16.98;13.88;;;8.00;99.90;;;;;;5081969;28;20253;-83
2021/11/25 00:47:36;;;;;;;21.08;14.90;;;8.00;99.90;;;;;;5079916;28;20267;-83
2021/11/25 00:50:04;;;;;;;20.40;13.68;;;8.00;99.90;;;;;;5079800;28;20206;-83
2021/11/25 00:52:31;;;;;;;17.10;13.50;;;8.00;99.90;;;;;;5080447;28;20278;-83
2021/11/25 00:54:58;;;;;;;24.33;14.40;;;8.00;99.90;;;;;;5078931;28;20280;-83
2021/11/25 00:57:24;;;;;;;20.60;13.55;;;7.90;99.90;;;;;;5079728;28;20416;-84
2021/11/25 01:00:06;;;;;;;17.98;13.80;;;7.90;99.90;;;;;;5079073;28;20285;-84
2021/11/25 01:02:33;;;;;;;23.83;15.20;;;8.00;99.90;;;;;;5080642;28;20201;-83
2021/11/25 01:05:00;;;;;;;17.70;14.23;;;8.00;99.90;;;;;;5080698;28;20235;-82
2021/11/25 01:07:27;;;;;;;16.50;13.15;;;8.00;99.90;;;;;;5081718;28;20217;-82
2021/11/25 01:09:53;;;;;;;14.25;12.02;;;8.00;99.90;;;;;;5080006;28;20289;-83
2021/11/25 01:12:20;;;;;;;18.75;12.93;;;8.20;99.90;;;;;;5078909;28;20246;-83
2021/11/25 01:14:47;;;;;;;20.75;15.43;;;8.10;99.90;;;;;;5082051;28;20210;-83
2021/11/25 01:17:17;;;;;;;19.00;14.48;;;8.00;99.90;;;;;;5082443;28;20253;-81
2021/11/25 01:19:44;;;;;;;20.83;14.00;;;8.00;99.90;;;;;;5080250;28;20210;-82
2021/11/25 01:22:11;;;;;;;18.30;13.27;;;8.20;99.90;;;;;;5081005;28;20230;-83
2021/11/25 01:24:38;;;;;;;18.52;14.00;;;8.10;99.90;;;;;;5083603;28;20232;-82
2021/11/25 01:27:05;;;;;;;19.00;14.15;;;8.00;99.90;;;;;;5083061;28;20297;-83
2021/11/25 01:29:32;;;;;;;18.98;13.90;;;8.00;99.90;;;;;;5083053;28;20213;-83
2021/11/25 01:31:59;;;;;;;17.23;13.48;;;8.00;99.90;;;;;;5083467;28;20256;-83
2021/11/25 01:34:27;;;;;;;16.98;13.95;;;8.00;99.90;;;;;;5080720;28;20258;-83
2021/11/25 01:36:54;;;;;;;19.10;14.98;;;7.90;99.90;;;;;;5089418;28;20202;-83
2021/11/25 01:39:21;;;;;;;17.73;13.50;;;7.90;99.90;;;;;;5097276;28;20211;-82
2021/11/25 01:41:48;;;;;;;19.35;14.32;;;7.80;99.90;;;;;;5104930;28;20212;-82
2021/11/25 01:44:16;;;;;;;17.35;13.77;;;7.80;99.90;;;;;;5097089;28;20935;-81
2021/11/25 01:46:43;;;;;;;19.15;15.00;;;7.80;99.90;;;;;;5093871;28;20203;-82
2021/11/25 01:49:10;;;;;;;17.92;12.68;;;7.80;99.90;;;;;;5088247;28;20214;-81
2021/11/25 01:51:38;;;;;;;16.67;13.43;;;7.80;99.90;;;;;;5084297;28;20233;-83
2021/11/25 01:54:05;;;;;;;20.63;14.75;;;7.90;99.90;;;;;;5094244;28;20258;-83
2021/11/25 01:56:32;;;;;;;19.58;14.45;;;7.70;99.90;;;;;;5097628;28;20197;-83
2021/11/25 01:58:59;;;;;;;22.02;15.20;;;7.70;99.90;;;;;;5087269;28;20253;-82
2021/11/25 02:01:33;;;;;;;22.60;13.90;;;7.60;99.90;;;;;;5093124;28;20214;-82
2021/11/25 02:04:01;;;;;;;28.50;16.10;;;7.60;99.90;;;;;;5094666;28;20204;-83
2021/11/25 02:06:28;;;;;;;19.40;12.57;;;7.60;99.90;;;;;;5097980;28;20186;-81
2021/11/25 02:08:56;;;;;;;19.52;13.73;;;7.60;99.90;;;;;;5099106;28;20223;-82
2021/11/25 02:11:23;;;;;;;21.55;14.43;;;7.70;99.90;;;;;;5091005;28;20236;-82
2021/11/25 02:13:50;;;;;;;23.58;15.00;;;7.50;99.90;;;;;;5101544;28;20189;-80
2021/11/25 02:16:17;;;;;;;18.30;14.70;;;7.60;99.90;;;;;;5105249;28;20202;-81
2021/11/25 02:18:44;;;;;;;17.35;13.20;;;7.60;99.90;;;;;;5099045;28;20241;-81
2021/11/25 02:21:12;;;;;;;22.92;15.20;;;7.60;99.90;;;;;;5104927;28;20265;-79
2021/11/25 02:23:40;;;;;;;23.20;16.27;;;7.50;99.90;;;;;;5100355;28;20186;-82
2021/11/25 02:26:07;;;;;;;23.67;16.33;;;7.40;99.90;;;;;;5095653;28;20191;-81
2021/11/25 02:28:36;;;;;;;18.60;15.05;;;7.50;99.90;;;;;;5074392;28;20292;-82
2021/11/25 02:31:04;;;;;;;25.30;16.95;;;7.40;99.90;;;;;;5080819;28;20267;-82
2021/11/25 02:33:32;;;;;;;22.02;15.82;;;7.30;99.90;;;;;;5080896;28;20210;-82
2021/11/25 02:35:59;;;;;;;20.10;13.73;;;7.10;99.90;;;;;;5083941;28;20226;-83
2021/11/25 02:38:27;;;;;;;19.83;15.60;;;7.10;99.90;;;;;;5099009;28;20210;-83
2021/11/25 02:40:56;;;;;;;25.65;17.15;;;7.00;99.90;;;;;;5079614;28;20258;-82
2021/11/25 02:43:25;;;;;;;21.73;15.93;;;7.00;99.90;;;;;;5080031;28;20297;-82
2021/11/25 02:45:54;;;;;;;22.23;14.65;;;7.00;99.90;;;;;;5079941;28;20642;-82
2021/11/25 02:48:23;;;;;;;19.75;15.60;;;7.00;99.90;;;;;;5079613;28;20214;-82
2021/11/25 02:50:52;;;;;;;20.40;14.88;;;6.90;99.90;;;;;;5083597;28;20282;-82
2021/11/25 02:53:20;;;;;;;22.30;15.10;;;7.00;99.90;;;;;;5089331;28;20291;-82
2021/11/25 02:55:49;;;;;;;21.33;15.10;;;7.00;99.90;;;;;;5079056;28;20244;-81
2021/11/25 02:58:16;;;;;;;26.33;16.15;;;7.00;99.90;;;;;;5079058;28;20225;-81
2021/11/25 03:00:46;;;;;;;22.42;16.67;;;7.10;99.90;;;;;;5078485;28;20316;-82
2021/11/25 03:03:15;;;;;;;21.90;17.23;;;7.10;99.90;;;;;;5083530;28;20225;-82
2021/11/25 03:05:46;;;;;;;19.30;14.75;;;7.00;99.90;;;;;;5082705;28;20231;-81
2021/11/25 03:08:14;;;;;;;24.05;16.02;;;7.00;99.90;;;;;;5086939;28;20257;-82
2021/11/25 03:10:43;;;;;;;24.27;16.52;;;7.00;99.90;;;;;;5077876;28;20280;-82
2021/11/25 03:13:14;;;;;;;28.50;18.13;;;6.90;99.90;;;;;;5079253;28;20205;-82
2021/11/25 03:15:42;;;;;;;23.90;16.58;;;6.90;99.90;;;;;;5080792;28;20288;-82
2021/11/25 03:18:11;;;;;;;24.35;16.88;;;6.90;99.90;;;;;;5088131;28;20735;-82
2021/11/25 03:20:38;;;;;;;24.77;16.67;;;6.90;99.90;;;;;;5087032;28;20265;-81
2021/11/25 03:23:06;;;;;;;25.85;17.23;;;6.90;99.90;;;;;;5100573;28;20205;-82
2021/11/25 03:25:33;;;;;;;21.88;15.63;;;6.80;99.90;;;;;;5084000;28;20205;-82
2021/11/25 03:28:00;;;;;;;22.60;16.45;;;7.00;99.90;;;;;;5086869;28;20260;-82
2021/11/25 03:30:29;;;;;;;25.70;17.38;;;7.10;99.90;;;;;;5084948;28;20303;-82
2021/11/25 03:32:56;;;;;;;24.05;15.93;;;7.00;99.90;;;;;;5085371;28;20269;-81
2021/11/25 03:35:23;;;;;;;22.88;16.65;;;7.00;99.90;;;;;;5061773;28;20751;-81
2021/11/25 03:37:50;;;;;;;22.63;15.55;;;7.00;99.90;;;;;;5083296;28;20264;-82
2021/11/25 03:40:17;;;;;;;25.27;17.05;;;6.80;99.90;;;;;;5077737;28;20289;-83
2021/11/25 03:42:44;;;;;;;26.17;15.90;;;7.00;99.90;;;;;;5077007;28;20358;-81
2021/11/25 03:45:11;;;;;;;25.40;18.17;;;6.90;99.90;;;;;;5079073;28;20288;-82
2021/11/25 03:47:41;;;;;;;28.63;18.25;;;7.00;99.90;;;;;;5080369;28;20208;-82
2021/11/25 03:50:09;;;;;;;22.08;15.60;;;7.00;99.90;;;;;;5079286;28;20206;-82
2021/11/25 03:52:36;;;;;;;24.05;16.95;;;7.00;99.90;;;;;;5072745;28;20213;-82
2021/11/25 03:55:03;;;;;;;22.58;16.05;;;7.00;99.90;;;;;;5075083;28;20234;-81
2021/11/25 03:57:30;;;;;;;21.02;15.02;;;7.00;99.90;;;;;;5084577;28;20237;-82
2021/11/25 03:59:57;;;;;;;27.30;18.52;;;7.20;99.90;;;;;;5086472;28;20191;-82
2021/11/25 04:02:24;;;;;;;22.23;16.60;;;7.00;99.90;;;;;;5085140;28;20319;-82
2021/11/25 04:04:52;;;;;;;27.17;17.20;;;7.00;99.90;;;;;;5089246;28;20273;-83
2021/11/25 04:07:19;;;;;;;23.20;16.92;;;7.00;99.90;;;;;;5091237;28;20232;-81
2021/11/25 04:09:46;;;;;;;26.95;18.13;;;7.10;99.90;;;;;;5098167;28;20246;-80
2021/11/25 04:12:12;;;;;;;24.42;16.95;;;7.10;99.90;;;;;;5099453;28;20250;-80
2021/11/25 04:14:39;;;;;;;27.05;18.70;;;7.10;99.90;;;;;;5100016;28;20574;-80
2021/11/25 04:17:06;;;;;;;25.63;18.17;;;7.00;99.90;;;;;;5094672;28;20205;-82
2021/11/25 04:19:33;;;;;;;27.10;18.63;;;7.10;99.90;;;;;;5084440;28;20224;-81
2021/11/25 04:22:02;;;;;;;23.52;17.83;;;7.00;99.90;;;;;;5101784;28;20225;-82
2021/11/25 04:24:30;;;;;;;27.40;20.35;;;6.80;99.90;;;;;;5090868;28;20201;-82
2021/11/25 04:26:57;;;;;;;28.90;19.17;;;6.90;99.90;;;;;;5086144;28;20206;-82
2021/11/25 04:29:25;;;;;;;27.10;20.40;;;6.90;99.90;;;;;;5083843;28;20254;-81
2021/11/25 04:37:22;;;;;;;27.30;19.17;;;6.90;99.90;;;;;;5079895;28;20315;-82
2021/11/25 04:39:49;;;;;;;27.48;19.85;;;6.90;99.90;;;;;;5079596;28;20743;-80
2021/11/25 04:42:17;;;;;;;25.83;19.38;;;6.70;99.90;;;;;;5077601;28;20218;-80
2021/11/25 04:44:44;;;;;;;28.98;19.08;;;6.80;99.90;;;;;;5086256;28;20235;-81
2021/11/25 04:47:11;;;;;;;28.33;19.98;;;6.80;99.90;;;;;;5084588;28;20205;-82
2021/11/25 04:49:38;;;;;;;27.00;19.25;;;6.80;99.90;;;;;;5090720;28;20205;-82
2021/11/25 04:52:06;;;;;;;29.42;20.63;;;6.80;99.90;;;;;;5086735;28;20721;-81
2021/11/25 04:54:34;;;;;;;30.42;21.58;;;6.80;99.90;;;;;;5088187;28;20573;-83
2021/11/25 04:57:01;;;;;;;31.50;21.63;;;6.80;99.90;;;;;;5090893;28;20214;-82
2021/11/25 04:59:28;;;;;;;26.65;20.60;;;6.80;99.90;;;;;;5094674;28;20232;-81
2021/11/25 05:01:55;;;;;;;36.47;22.48;;;6.70;99.90;;;;;;5097747;28;20205;-82
2021/11/25 05:04:22;;;;;;;28.02;19.63;;;6.60;99.90;;;;;;5097396;28;20178;-79
2021/11/25 05:06:48;;;;;;;28.10;19.58;;;6.80;99.90;;;;;;5097814;28;20190;-80
2021/11/25 05:09:16;;;;;;;26.58;20.55;;;7.00;99.90;;;;;;5097778;28;20189;-81
2021/11/25 05:11:44;;;;;;;24.23;17.92;;;6.80;99.90;;;;;;5097794;28;20219;-81
2021/11/25 05:14:11;;;;;;;26.55;19.08;;;6.80;99.90;;;;;;5097616;28;20181;-80
2021/11/25 05:16:38;;;;;;;29.95;20.05;;;6.80;99.90;;;;;;5105249;28;20201;-80
2021/11/25 05:19:05;;;;;;;27.10;19.42;;;6.70;99.90;;;;;;5100896;28;20233;-79
2021/11/25 05:21:32;;;;;;;29.92;22.48;;;6.70;99.90;;;;;;5090914;28;20275;-82
2021/11/25 05:23:59;;;;;;;31.70;21.42;;;6.70;99.90;;;;;;5084951;28;20203;-81
2021/11/25 05:26:26;;;;;;;26.05;20.90;;;6.60;99.90;;;;;;5079537;28;20726;-80
2021/11/25 05:28:54;;;;;;;31.08;22.30;;;6.60;99.90;;;;;;5079202;28;20217;-82
2021/11/25 05:31:22;;;;;;;31.42;20.70;;;6.60;99.90;;;;;;5077789;28;20267;-83
2021/11/25 05:33:49;;;;;;;27.15;20.88;;;6.60;99.90;;;;;;5080263;28;20286;-81
2021/11/25 05:36:16;;;;;;;31.33;20.48;;;6.60;99.90;;;;;;5078333;28;20201;-81
2021/11/25 05:38:43;;;;;;;32.53;21.52;;;6.60;99.90;;;;;;5083843;28;20229;-83
2021/11/25 05:41:10;;;;;;;28.65;20.52;;;6.60;99.90;;;;;;5084542;28;20339;-82
2021/11/25 05:43:37;;;;;;;35.05;23.60;;;6.50;99.90;;;;;;5085484;28;20231;-84
2021/11/25 05:46:05;;;;;;;31.02;21.65;;;6.40;99.90;;;;;;5079132;28;20216;-81
2021/11/25 05:48:32;;;;;;;31.73;21.95;;;6.40;99.90;;;;;;5083981;28;20235;-82
2021/11/25 05:51:00;;;;;;;32.25;21.55;;;6.40;99.90;;;;;;5086063;28;20299;-82
2021/11/25 05:53:27;;;;;;;36.40;25.38;;;6.50;99.90;;;;;;5078382;28;20200;-83
2021/11/25 05:55:53;;;;;;;31.55;23.05;;;6.30;99.90;;;;;;5079625;28;20200;-84
2021/11/25 05:58:21;;;;;;;37.58;23.05;;;6.30;99.90;;;;;;5079948;28;20228;-83
2021/11/25 06:00:48;;;;;;;37.70;25.45;;;6.30;99.90;;;;;;5080055;28;20228;-83
2021/11/25 06:03:17;;;;;;;34.20;23.17;;;6.30;99.90;;;;;;5080572;28;20200;-83
2021/11/25 06:05:44;;;;;;;34.75;25.63;;;6.30;99.90;;;;;;5085114;28;20226;-83
2021/11/25 06:08:10;;;;;;;41.42;23.52;;;6.30;99.90;;;;;;5085498;28;20242;-83
2021/11/25 06:10:37;;;;;;;39.78;25.45;;;6.40;99.90;;;;;;5078817;28;20225;-84
2021/11/25 06:13:04;;;;;;;38.97;26.40;;;6.40;99.90;;;;;;5079579;28;20262;-82
2021/11/25 06:15:31;;;;;;;35.05;24.67;;;6.40;99.90;;;;;;5080231;28;20736;-83
2021/11/25 06:17:58;;;;;;;43.50;26.02;;;6.30;99.90;;;;;;5081373;28;20199;-84
2021/11/25 06:20:26;;;;;;;39.35;25.10;;;6.30;99.90;;;;;;5080710;28;20269;-84
2021/11/25 06:22:55;;;;;;;40.70;25.70;;;6.40;99.90;;;;;;5082804;28;20240;-82
2021/11/25 06:25:23;;;;;;;37.88;25.20;;;6.50;99.90;;;;;;5080167;28;20654;-85
2021/11/25 06:27:51;;;;;;;47.50;28.35;;;6.50;99.90;;;;;;5081611;28;20204;-84
2021/11/25 06:30:17;;;;;;;41.72;26.60;;;6.40;99.90;;;;;;5077261;28;20196;-85
2021/11/25 06:32:46;;;;;;;41.78;24.75;;;6.40;99.90;;;;;;5080273;28;20211;-84
2021/11/25 06:35:16;;;;;;;40.78;25.13;;;6.50;99.90;;;;;;5081524;28;20208;-82
2021/11/25 06:37:46;;;;;;;42.25;25.42;;;6.50;99.90;;;;;;5094251;28;20230;-85
2021/11/25 06:40:15;;;;;;;41.75;27.63;;;6.50;99.90;;;;;;5093339;28;20203;-82
2021/11/25 06:42:42;;;;;;;42.95;28.08;;;6.50;99.90;;;;;;5090786;28;20243;-83
2021/11/25 06:45:09;;;;;;;40.95;25.77;;;6.50;99.90;;;;;;5095570;28;20192;-81
2021/11/25 06:47:37;;;;;;;38.97;26.33;;;6.50;99.90;;;;;;5085143;28;20224;-84
2021/11/25 06:50:05;;;;;;;40.95;25.50;;;6.40;99.90;;;;;;5079493;28;20208;-85
2021/11/25 06:52:32;;;;;;;45.10;29.58;;;6.40;99.90;;;;;;5081087;28;20207;-83
2021/11/25 06:55:00;;;;;;;42.30;27.27;;;6.30;99.90;;;;;;5083149;28;20228;-86
2021/11/25 06:57:27;;;;;;;42.10;27.98;;;6.30;99.90;;;;;;5083893;28;20628;-84
2021/11/25 06:59:54;;;;;;;44.00;26.63;;;6.40;99.90;;;;;;5084253;28;20226;-84
2021/11/25 07:02:20;;;;;;;41.63;29.05;;;6.40;99.90;;;;;;5087024;28;20250;-84
2021/11/25 07:04:47;;;;;;;44.47;28.98;;;6.40;99.90;;;;;;5078602;28;20307;-86
2021/11/25 07:07:14;;;;;;;44.90;29.77;;;6.50;99.90;;;;;;5083455;28;20240;-81
2021/11/25 07:09:41;;;;;;;45.95;29.33;;;6.50;99.90;;;;;;5086428;28;20279;-84
2021/11/25 07:12:10;;;;;;;46.65;30.50;;;6.50;99.90;;;;;;5075950;28;20225;-81
2021/11/25 07:14:40;;;;;;;52.38;31.75;;;6.70;99.90;;;;;;5085784;28;20209;-84
2021/11/25 07:17:07;;;;;;;44.70;28.02;;;6.90;99.90;;;;;;5084692;28;20206;-81
2021/11/25 07:19:34;;;;;;;42.92;26.95;;;7.10;99.90;;;;;;5085828;28;20257;-84
2021/11/25 07:22:01;;;;;;;48.17;31.70;;;7.10;99.90;;;;;;5086571;28;20261;-83
2021/11/25 07:24:28;;;;;;;48.17;29.58;;;7.00;99.90;;;;;;5084442;28;20246;-84
2021/11/25 07:26:56;;;;;;;45.00;29.67;;;7.00;99.90;;;;;;5088991;28;20231;-85
2021/11/25 07:29:26;;;;;;;45.67;29.95;;;6.90;99.90;;;;;;5081845;28;20258;-84
2021/11/25 07:31:52;;;;;;;49.70;31.80;;;6.90;99.90;;;;;;5082973;28;20759;-82
2021/11/25 07:34:19;;;;;;;42.65;29.50;;;6.90;99.90;;;;;;5087437;28;20220;-83
2021/11/25 07:36:46;;;;;;;44.72;29.88;;;6.90;99.90;;;;;;5087405;28;20206;-83
2021/11/25 07:39:30;;;;;;;46.20;31.60;;;7.00;99.90;;;;;;5089610;28;20596;-83
2021/11/25 07:41:57;;;;;;;54.50;31.10;;;6.90;99.90;;;;;;5083083;28;20225;-81
2021/11/25 07:44:27;;;;;;;46.92;31.23;;;6.90;99.90;;;;;;5083034;28;20571;-83
2021/11/25 07:46:54;;;;;;;48.00;29.38;;;6.90;99.90;;;;;;5080544;28;20213;-81
2021/11/25 07:49:22;;;;;;;50.42;32.30;;;7.00;99.90;;;;;;5073826;28;20259;-82
2021/11/25 07:51:49;;;;;;;47.70;28.88;;;7.00;99.90;;;;;;5090375;28;20259;-81
2021/11/25 07:54:16;;;;;;;50.63;30.38;;;7.10;99.90;;;;;;5089768;28;20607;-82
2021/11/25 07:56:45;;;;;;;45.05;29.42;;;7.10;99.90;;;;;;5080364;28;20264;-81
2021/11/25 07:59:11;;;;;;;47.58;29.90;;;7.10;99.90;;;;;;5082215;28;20265;-81
2021/11/25 08:01:41;;;;;;;49.72;30.83;;;7.10;99.90;;;;;;5080533;28;20221;-82
2021/11/25 08:04:08;;;;;;;45.97;30.40;;;7.10;99.90;;;;;;5080399;28;20270;-81
2021/11/25 08:06:36;;;;;;;48.53;32.72;;;7.10;99.90;;;;;;5078802;28;20241;-81
2021/11/25 08:09:03;;;;;;;51.92;33.47;;;7.10;99.90;;;;;;5078770;28;20266;-82
2021/11/25 08:11:30;;;;;;;49.75;31.95;;;7.10;99.90;;;;;;5079453;28;20241;-82
2021/11/25 08:13:57;;;;;;;50.47;30.75;;;7.30;99.90;;;;;;5080791;28;20206;-83
2021/11/25 08:16:24;;;;;;;49.65;29.25;;;7.70;99.90;;;;;;5079561;28;20260;-83
2021/11/25 08:18:52;;;;;;;48.63;32.00;;;8.10;99.90;;;;;;5077004;28;20210;-85
2021/11/25 08:21:21;;;;;;;46.92;29.60;;;8.40;99.90;;;;;;5082428;28;20703;-85
2021/11/25 08:23:48;;;;;;;51.17;30.50;;;8.30;99.90;;;;;;5089070;28;20221;-85
2021/11/25 08:26:15;;;;;;;53.97;30.55;;;8.20;99.90;;;;;;5089735;28;20233;-85
2021/11/25 08:28:41;;;;;;;49.78;32.75;;;8.00;99.90;;;;;;5079584;28;20233;-85
2021/11/25 08:31:09;;;;;;;57.88;32.03;;;7.80;99.90;;;;;;5080538;28;20301;-85
2021/11/25 08:33:37;;;;;;;55.53;35.45;;;7.70;99.90;;;;;;5076634;28;20230;-85
2021/11/25 08:36:06;;;;;;;48.10;33.35;;;7.50;99.90;;;;;;5070597;28;20202;-84
2021/11/25 08:38:33;;;;;;;52.28;31.73;;;7.40;99.90;;;;;;5074581;28;20227;-85
2021/11/25 08:41:01;;;;;;;55.47;33.97;;;7.20;99.90;;;;;;5082416;28;20226;-84
2021/11/25 08:43:29;;;;;;;53.60;31.88;;;7.20;99.90;;;;;;5081878;28;20264;-83
2021/11/25 08:45:55;;;;;;;58.55;33.53;;;7.30;99.90;;;;;;5076655;28;20237;-81
2021/11/25 08:48:23;;;;;;;54.10;31.58;;;7.30;99.90;;;;;;5081888;28;20203;-82
2021/11/25 08:50:50;;;;;;;59.00;35.40;;;7.40;99.90;;;;;;5086974;28;20274;-83
2021/11/25 08:53:21;;;;;;;50.10;30.30;;;7.10;99.90;;;;;;5084075;28;20240;-82
2021/11/25 08:55:48;;;;;;;48.78;30.65;;;7.20;99.90;;;;;;5067315;28;20207;-83
2021/11/25 08:58:16;;;;;;;54.17;30.45;;;7.30;99.90;;;;;;5078642;28;20656;-83
2021/11/25 09:00:43;;;;;;;49.40;30.98;;;7.30;99.90;;;;;;5081902;28;20543;-82
2021/11/25 09:03:09;;;;;;;53.83;32.83;;;7.30;99.90;;;;;;5072328;28;20289;-82
2021/11/25 09:05:36;;;;;;;50.15;31.45;;;7.30;99.90;;;;;;5091681;28;20300;-80
2021/11/25 09:08:04;;;;;;;50.45;29.30;;;7.40;99.90;;;;;;5079230;28;20269;-82
2021/11/25 09:10:35;;;;;;;49.53;31.73;;;7.30;99.90;;;;;;5081821;28;20230;-83
2021/11/25 09:13:03;;;;;;;50.83;31.65;;;7.30;99.90;;;;;;5073180;28;20213;-81
2021/11/25 09:15:32;;;;;;;48.63;30.77;;;7.30;99.90;;;;;;5081545;28;20198;-81
2021/11/25 09:18:00;;;;;;;53.53;30.27;;;7.30;99.90;;;;;;5081202;28;20352;-80
2021/11/25 09:20:31;;;;;;;49.35;31.58;;;7.40;99.90;;;;;;5088681;28;20237;-82
2021/11/25 09:22:58;;;;;;;55.67;31.65;;;7.40;99.90;;;;;;5084176;28;20218;-80
2021/11/25 09:25:25;;;;;;;49.28;31.35;;;7.30;99.90;;;;;;5083964;28;20205;-80
2021/11/25 09:27:53;;;;;;;49.47;30.63;;;7.40;99.90;;;;;;5084086;28;20250;-79
2021/11/25 09:30:20;;;;;;;48.55;30.08;;;7.50;99.90;;;;;;5078719;28;20222;-78
2021/11/25 09:32:48;;;;;;;48.40;29.65;;;7.50;99.90;;;;;;5090602;28;20271;-80
2021/11/25 09:35:15;;;;;;;51.92;29.95;;;7.60;99.90;;;;;;5095734;28;20263;-81
2021/11/25 09:37:42;;;;;;;41.53;28.90;;;7.60;99.90;;;;;;5094211;28;20269;-81
2021/11/25 09:40:21;;;;;;;47.80;29.83;;;7.50;99.90;;;;;;5088818;28;20224;-82
2021/11/25 09:42:48;;;;;;;49.30;29.48;;;7.50;99.90;;;;;;5093168;28;20255;-82
2021/11/25 09:45:21;;;;;;;50.10;30.00;;;7.50;99.90;;;;;;5090460;28;20206;-81
2021/11/25 09:47:50;;;;;;;51.38;31.00;;;7.60;99.90;;;;;;5087934;28;20193;-81
2021/11/25 09:50:19;;;;;;;51.35;28.98;;;7.60;99.90;;;;;;5095565;28;20264;-80
2021/11/25 09:52:47;;;;;;;45.10;27.55;;;7.70;99.90;;;;;;5100464;28;20256;-81
2021/11/25 09:55:14;;;;;;;49.22;29.88;;;7.70;99.90;;;;;;5099917;28;20199;-79
2021/11/25 09:57:41;;;;;;;48.97;29.50;;;7.80;99.90;;;;;;5100432;28;20201;-79
2021/11/25 10:00:09;;;;;;;41.10;27.83;;;7.70;99.90;;;;;;5099593;28;20232;-78
2021/11/25 10:02:38;;;;;;;47.63;29.52;;;7.80;99.90;;;;;;5100581;28;20190;-79
2021/11/25 10:05:06;;;;;;;42.85;27.48;;;7.90;99.90;;;;;;5100512;28;20275;-79
2021/11/25 10:07:36;;;;;;;40.38;27.02;;;7.90;99.90;;;;;;5111844;28;20195;-79
2021/11/25 10:10:19;;;;;;;54.70;30.35;;;8.00;99.90;;;;;;5110706;28;20192;-80
2021/11/25 10:12:57;;;;;;;48.85;30.67;;;8.00;99.90;;;;;;5114050;28;20201;-81
2021/11/25 10:15:28;;;;;;;44.10;28.35;;;7.90;99.90;;;;;;5091453;28;20202;-81
2021/11/25 10:17:59;;;;;;;45.05;30.20;;;7.90;99.90;;;;;;5082210;28;20240;-82
2021/11/25 10:20:29;;;;;;;45.17;28.23;;;7.90;99.90;;;;;;5093279;28;20340;-80
2021/11/25 10:23:15;;;;;;;49.33;30.00;;;8.00;99.90;;;;;;5092981;28;20224;-81
2021/11/25 10:25:49;;;;;;;41.67;29.40;;;7.90;99.90;;;;;;5086391;28;20198;-82
2021/11/25 10:28:22;;;;;;;50.35;30.27;;;7.90;99.90;;;;;;5087496;28;20233;-81
2021/11/25 10:30:51;;;;;;;41.60;29.42;;;7.90;99.90;;;;;;5086211;28;20236;-82
2021/11/25 10:33:25;;;;;;;45.80;29.13;;;7.90;99.90;;;;;;5087708;28;20199;-81
2021/11/25 10:39:03;;;;;;;44.42;29.65;;;8.00;99.90;;;;;;5078098;28;20222;-81
2021/11/25 10:41:32;;;;;;;44.83;29.42;;;8.00;99.90;;;;;;5081175;28;20229;-80
2021/11/25 10:44:12;;;;;;;49.20;31.08;;;8.10;99.90;;;;;;5087261;28;20229;-81
2021/11/25 10:46:46;;;;;;;54.35;31.42;;;7.80;99.90;;;;;;5081772;28;20208;-81
2021/11/25 10:49:37;;;;;;;48.10;29.73;;;7.80;99.90;;;;;;5072162;28;20659;-85
2021/11/25 10:52:14;;;;;;;43.63;28.75;;;7.80;99.90;;;;;;5079759;28;20241;-83
2021/11/25 10:54:44;;;;;;;47.35;29.77;;;7.80;99.90;;;;;;5078986;28;20274;-83
2021/11/25 10:57:11;;;;;;;48.97;30.20;;;7.90;99.90;;;;;;5082792;28;20269;-82
2021/11/25 10:59:45;;;;;;;50.72;32.13;;;7.70;99.90;;;;;;5081597;28;20207;-85
2021/11/25 11:02:30;;;;;;;49.85;32.15;;;7.50;99.90;;;;;;5084560;28;20248;-82
2021/11/25 11:05:03;;;;;;;63.80;33.80;;;7.80;99.90;;;;;;5080694;28;20247;-81
2021/11/25 11:07:32;;;;;;;59.35;35.08;;;7.60;99.90;;;;;;5081759;28;20210;-82
2021/11/25 11:10:37;;;;;;;66.20;37.33;;;7.60;99.90;;;;;;5084622;28;20237;-82
2021/11/25 11:13:15;;;;;;;64.05;37.28;;;7.60;99.90;;;;;;5079441;28;20198;-80
2021/11/25 11:15:51;;;;;;;65.28;36.22;;;7.60;99.90;;;;;;5075464;28;20269;-81
2021/11/25 11:21:04;;;;;;;63.15;39.63;;;7.30;99.90;;;;;;5082119;28;20309;-82
2021/11/25 11:23:31;;;;;;;60.95;36.85;;;7.30;99.90;;;;;;5086470;28;20264;-82
2021/11/25 11:25:59;;;;;;;60.88;37.35;;;7.20;99.90;;;;;;5090188;28;20223;-83
2021/11/25 11:28:27;;;;;;;80.57;43.08;;;7.10;99.90;;;;;;5085841;28;20212;-80
2021/11/25 11:30:54;;;;;;;66.93;39.28;;;7.10;99.90;;;;;;5079913;28;20286;-82
2021/11/25 11:33:21;;;;;;;74.32;42.78;;;7.00;99.90;;;;;;5074689;28;20297;-82
2021/11/25 11:35:48;;;;;;;78.28;42.70;;;7.10;99.90;;;;;;5083622;28;21761;-84
2021/11/25 11:38:18;;;;;;;74.38;43.45;;;7.10;99.90;;;;;;5085716;28;20201;-82
2021/11/25 11:40:45;;;;;;;72.85;43.00;;;7.10;99.90;;;;;;5082416;28;20252;-83
2021/11/25 11:43:14;;;;;;;73.55;45.65;;;7.00;99.90;;;;;;5081815;28;20562;-82
2021/11/25 11:45:41;;;;;;;67.70;44.15;;;7.00;99.90;;;;;;5077622;28;20245;-82
2021/11/25 11:48:13;;;;;;;76.00;44.35;;;7.10;99.90;;;;;;5081381;28;20203;-82
2021/11/25 11:50:42;;;;;;;79.13;50.60;;;7.10;99.90;;;;;;5084024;28;20229;-83
2021/11/25 11:55:58;;;;;;;74.22;42.65;;;7.10;99.90;;;;;;5082193;28;20549;-82
2021/11/25 11:58:32;;;;;;;72.57;43.50;;;7.10;99.90;;;;;;5083886;28;20658;-81
2021/11/25 12:01:05;;;;;;;74.72;44.75;;;7.10;99.90;;;;;;5084597;28;20246;-82
2021/11/25 12:03:35;;;;;;;84.90;46.67;;;7.20;99.90;;;;;;5085026;28;20213;-83
2021/11/25 12:06:02;;;;;;;80.47;46.80;;;7.20;99.90;;;;;;5083951;28;20214;-83
2021/11/25 12:08:40;;;;;;;86.10;46.45;;;7.20;99.90;;;;;;5088588;28;20213;-82
2021/11/25 12:11:11;;;;;;;79.53;44.88;;;7.30;99.90;;;;;;5087310;28;20229;-82
2021/11/25 12:13:58;;;;;;;75.72;44.22;;;7.30;99.90;;;;;;5080088;28;20286;-82
2021/11/25 12:16:26;;;;;;;77.97;45.70;;;7.40;99.90;;;;;;5082819;28;20293;-83
2021/11/25 12:18:58;;;;;;;70.85;44.97;;;7.40;99.90;;;;;;5082797;28;20288;-83
2021/11/25 12:21:49;;;;;;;83.97;43.90;;;7.40;99.90;;;;;;5081369;28;20587;-82
2021/11/25 12:24:25;;;;;;;74.85;44.35;;;7.40;99.90;;;;;;5069848;28;20603;-83
2021/11/25 12:27:07;;;;;;;78.10;46.85;;;7.50;99.90;;;;;;5075328;28;20669;-83
2021/11/25 12:29:41;;;;;;;80.78;43.65;;;7.40;99.90;;;;;;5077976;28;20203;-84
2021/11/25 12:32:31;;;;;;;74.95;44.20;;;7.40;99.90;;;;;;5078263;28;20230;-83
2021/11/25 12:35:00;;;;;;;77.07;43.47;;;7.50;99.90;;;;;;5082904;28;20203;-83
2021/11/25 12:37:55;;;;;;;71.35;43.33;;;7.40;99.90;;;;;;5074514;28;20261;-83
2021/11/25 12:40:43;;;;;;;74.03;41.80;;;7.50;99.90;;;;;;5081284;28;20213;-83
2021/11/25 12:43:13;;;;;;;80.40;44.95;;;7.30;99.90;;;;;;5078172;28;20226;-83
2021/11/25 12:45:42;;;;;;;78.60;46.55;;;7.30;99.90;;;;;;5082007;28;20201;-82
2021/11/25 12:48:14;;;;;;;74.43;43.15;;;7.40;99.90;;;;;;5069082;28;20208;-81
2021/11/25 12:50:44;;;;;;;74.00;45.65;;;7.40;99.90;;;;;;5082061;28;20252;-82
2021/11/25 12:53:13;;;;;;;80.10;44.50;;;7.40;99.90;;;;;;5086385;28;20615;-83
2021/11/25 12:55:42;;;;;;;81.65;43.45;;;7.40;99.90;;;;;;5086543;28;20231;-81
2021/11/25 12:58:11;;;;;;;83.40;48.10;;;7.40;99.90;;;;;;5086048;28;20213;-83